createdAt,value
2019-05-22T00:00:25.467Z,84.80
2019-05-22T00:02:54.421Z,84.80
2019-05-22T00:05:24.752Z,84.80
2019-05-22T00:07:54.603Z,84.80
2019-05-22T00:10:33.926Z,84.80
2019-05-22T00:13:04.047Z,84.80
2019-05-22T00:15:33.369Z,84.80
2019-05-22T00:18:02.886Z,84.80
2019-05-22T00:20:31.483Z,84.90
2019-05-22T00:23:03.966Z,84.80
2019-05-22T00:25:33.438Z,84.90
2019-05-22T00:28:04.124Z,85.00
2019-05-22T00:30:34.248Z,85.00
2019-05-22T00:33:02.936Z,85.00
2019-05-22T00:35:31.748Z,85.00
2019-05-22T00:38:01.380Z,85.10
2019-05-22T00:40:31.618Z,85.00
2019-05-22T00:43:05.022Z,85.00
2019-05-22T00:45:31.150Z,85.00
2019-05-22T00:48:00.196Z,85.00
2019-05-22T00:50:32.957Z,85.00
2019-05-22T00:53:07.514Z,85.00
2019-05-22T00:55:47.330Z,85.00
2019-05-22T00:58:24.450Z,85.10
2019-05-22T01:00:54.968Z,85.00
2019-05-22T01:03:25.825Z,85.00
2019-05-22T01:05:55.447Z,85.10
2019-05-22T01:08:25.775Z,85.20
2019-05-22T01:10:55.947Z,85.10
2019-05-22T01:13:27.253Z,85.20
2019-05-22T01:15:56.210Z,85.30
2019-05-22T01:18:26.964Z,85.30
2019-05-22T01:20:58.615Z,85.50
2019-05-22T01:23:30.022Z,85.40
2019-05-22T01:26:00.433Z,85.40
2019-05-22T01:28:30.051Z,86.00
2019-05-22T01:31:00.311Z,85.30
2019-05-22T01:33:34.841Z,85.30
2019-05-22T01:36:05.159Z,85.30
2019-05-22T01:38:38.449Z,85.30
2019-05-22T01:41:16.991Z,85.40
2019-05-22T01:43:46.145Z,85.40
2019-05-22T01:46:15.675Z,85.40
2019-05-22T01:48:45.196Z,85.30
2019-05-22T01:51:15.827Z,85.30
2019-05-22T01:53:44.320Z,85.40
2019-05-22T01:56:13.428Z,85.40
2019-05-22T01:58:43.877Z,85.40
2019-05-22T02:01:14.203Z,85.30
2019-05-22T02:03:43.678Z,85.40
2019-05-22T02:06:12.349Z,85.30
2019-05-22T02:08:43.947Z,85.40
2019-05-22T02:11:13.994Z,85.40
2019-05-22T02:13:46.383Z,85.20
2019-05-22T02:16:16.635Z,85.20
2019-05-22T02:18:47.776Z,85.20
2019-05-22T02:21:16.577Z,85.30
2019-05-22T02:23:47.301Z,85.40
2019-05-22T02:26:16.357Z,85.40
2019-05-22T02:28:46.093Z,85.40
2019-05-22T02:31:23.297Z,85.30
2019-05-22T02:34:02.794Z,85.40
2019-05-22T02:36:34.611Z,85.40
2019-05-22T02:39:06.587Z,85.30
2019-05-22T02:41:47.067Z,85.30
2019-05-22T02:44:16.325Z,85.40
2019-05-22T02:46:44.949Z,85.40
2019-05-22T02:49:14.872Z,85.60
2019-05-22T02:51:43.630Z,85.60
2019-05-22T02:54:12.490Z,85.50
2019-05-22T02:56:41.555Z,85.30
2019-05-22T02:59:10.273Z,85.40
2019-05-22T03:01:40.415Z,85.20
2019-05-22T03:04:10.271Z,85.20
2019-05-22T03:06:39.026Z,85.10
2019-05-22T03:09:14.840Z,85.10
2019-05-22T03:11:59.144Z,85.10
2019-05-22T03:14:28.390Z,85.10
2019-05-22T03:17:00.464Z,85.00
2019-05-22T03:19:39.014Z,85.10
2019-05-22T03:22:37.728Z,85.00
2019-05-22T03:25:09.448Z,85.00
2019-05-22T03:27:42.510Z,85.00
2019-05-22T03:30:14.396Z,85.00
2019-05-22T03:32:44.563Z,85.80
2019-05-22T03:35:14.047Z,85.00
2019-05-22T03:37:43.181Z,85.00
2019-05-22T03:40:13.023Z,84.90
2019-05-22T03:42:41.545Z,84.90
2019-05-22T03:45:11.004Z,84.70
2019-05-22T03:47:41.054Z,84.50
2019-05-22T03:50:11.789Z,84.40
2019-05-22T03:52:40.259Z,84.20
2019-05-22T03:55:11.406Z,84.20
2019-05-22T03:57:41.390Z,84.00
2019-05-22T04:00:17.353Z,83.80
2019-05-22T04:02:53.295Z,83.60
2019-05-22T04:05:23.074Z,83.40
2019-05-22T04:07:52.626Z,83.30
2019-05-22T04:10:21.410Z,83.20
2019-05-22T04:12:50.116Z,83.00
2019-05-22T04:15:19.094Z,82.90
2019-05-22T04:17:48.467Z,82.80
2019-05-22T04:20:19.714Z,82.60
2019-05-22T04:22:50.815Z,82.60
2019-05-22T04:25:18.767Z,82.70
2019-05-22T04:27:47.531Z,82.60
2019-05-22T04:30:16.839Z,82.70
2019-05-22T04:32:45.701Z,82.50
2019-05-22T04:35:18.934Z,82.50
2019-05-22T04:37:49.465Z,82.40
2019-05-22T04:40:27.145Z,82.30
2019-05-22T04:42:59.258Z,82.10
2019-05-22T04:45:28.361Z,82.10
2019-05-22T04:48:01.943Z,82.20
2019-05-22T04:50:30.902Z,82.20
2019-05-22T04:53:00.460Z,82.00
2019-05-22T04:55:29.971Z,81.90
2019-05-22T04:58:01.271Z,81.90
2019-05-22T05:00:30.609Z,81.80
2019-05-22T05:02:59.396Z,81.60
2019-05-22T05:05:29.995Z,81.70
2019-05-22T05:07:58.550Z,81.60
2019-05-22T05:10:27.442Z,81.60
2019-05-22T05:12:59.237Z,82.10
2019-05-22T05:15:27.785Z,81.20
2019-05-22T05:17:56.269Z,81.20
2019-05-22T05:20:24.860Z,81.00
2019-05-22T05:22:53.523Z,80.90
2019-05-22T05:25:24.197Z,80.90
2019-05-22T05:27:52.470Z,80.90
2019-05-22T05:30:22.006Z,80.80
2019-05-22T05:32:50.750Z,80.70
2019-05-22T05:35:20.260Z,80.70
2019-05-22T05:37:49.578Z,80.50
2019-05-22T05:40:34.590Z,80.40
2019-05-22T05:43:04.357Z,80.30
2019-05-22T05:45:33.222Z,80.20
2019-05-22T05:48:03.898Z,80.20
2019-05-22T05:50:39.812Z,80.10
2019-05-22T05:53:05.550Z,80.00
2019-05-22T05:55:43.711Z,79.90
2019-05-22T05:58:27.505Z,79.80
2019-05-22T06:01:11.661Z,79.70
2019-05-22T06:03:41.279Z,79.50
2019-05-22T06:06:30.973Z,79.40
2019-05-22T06:09:00.427Z,79.40
2019-05-22T06:11:41.015Z,79.70
2019-05-22T06:14:25.763Z,79.70
2019-05-22T06:17:07.670Z,79.70
2019-05-22T06:19:42.333Z,79.50
2019-05-22T06:22:12.011Z,79.40
2019-05-22T06:24:49.749Z,79.00
2019-05-22T06:27:20.010Z,78.90
2019-05-22T06:29:55.493Z,78.90
2019-05-22T06:32:34.462Z,78.70
2019-05-22T06:35:03.427Z,78.50
2019-05-22T06:37:54.587Z,78.10
2019-05-22T06:40:23.767Z,78.00
2019-05-22T06:43:26.588Z,77.80
2019-05-22T06:45:56.152Z,77.60
2019-05-22T06:48:25.064Z,77.40
2019-05-22T06:50:53.731Z,77.40
2019-05-22T06:53:22.135Z,77.50
2019-05-22T06:55:51.267Z,77.40
2019-05-22T06:58:20.518Z,77.50
2019-05-22T07:00:48.929Z,77.50
2019-05-22T07:03:17.647Z,77.60
2019-05-22T07:05:46.353Z,77.50
2019-05-22T07:08:15.708Z,77.60
2019-05-22T07:10:44.689Z,77.70
2019-05-22T07:13:14.102Z,77.80
2019-05-22T07:15:43.823Z,77.80
2019-05-22T07:18:15.227Z,77.80
2019-05-22T07:20:44.691Z,77.40
2019-05-22T07:23:14.960Z,77.00
2019-05-22T07:25:45.040Z,77.00
2019-05-22T07:28:15.677Z,76.90
2019-05-22T07:30:44.856Z,76.80
2019-05-22T07:33:13.480Z,76.80
2019-05-22T07:35:56.741Z,76.70
2019-05-22T07:38:13.894Z,76.60
2019-05-22T07:40:43.065Z,76.20
2019-05-22T07:43:11.830Z,76.20
2019-05-22T07:45:40.677Z,76.10
2019-05-22T07:48:10.596Z,75.80
2019-05-22T07:50:42.109Z,76.30
2019-05-22T07:53:11.554Z,74.80
2019-05-22T07:55:41.111Z,74.60
2019-05-22T07:58:14.349Z,74.50
2019-05-22T08:00:46.916Z,74.10
2019-05-22T08:03:15.829Z,73.20
2019-05-22T08:05:47.442Z,73.90
2019-05-22T08:08:18.717Z,73.70
2019-05-22T08:10:46.734Z,73.30
2019-05-22T08:13:15.670Z,74.30
2019-05-22T08:15:47.626Z,73.50
2019-05-22T08:18:16.494Z,72.30
2019-05-22T08:20:45.458Z,72.10
2019-05-22T08:23:14.517Z,72.10
2019-05-22T08:25:43.003Z,72.00
2019-05-22T08:28:12.663Z,71.70
2019-05-22T08:30:41.351Z,71.30
2019-05-22T08:33:13.195Z,70.20
2019-05-22T08:35:42.264Z,68.70
2019-05-22T08:38:12.265Z,68.10
2019-05-22T08:40:40.979Z,67.80
2019-05-22T08:43:10.038Z,67.80
2019-05-22T08:45:38.827Z,67.40
2019-05-22T08:48:07.769Z,67.00
2019-05-22T08:50:37.529Z,66.80
2019-05-22T08:53:06.912Z,67.00
2019-05-22T08:55:36.269Z,67.30
2019-05-22T08:58:05.849Z,68.00
2019-05-22T09:00:34.800Z,68.40
2019-05-22T09:03:04.382Z,68.60
2019-05-22T09:05:34.075Z,68.80
2019-05-22T09:08:03.174Z,68.70
2019-05-22T09:10:32.794Z,68.30
2019-05-22T09:13:01.224Z,67.90
2019-05-22T09:15:30.262Z,67.10
2019-05-22T09:17:58.742Z,66.00
2019-05-22T09:20:27.151Z,66.00
2019-05-22T09:22:55.885Z,66.40
2019-05-22T09:25:24.353Z,65.40
2019-05-22T09:27:52.943Z,64.00
2019-05-22T09:30:21.630Z,62.70
2019-05-22T09:32:50.610Z,62.00
2019-05-22T09:35:19.870Z,62.40
2019-05-22T09:37:48.349Z,63.20
2019-05-22T09:40:17.505Z,63.40
2019-05-22T09:42:46.307Z,63.30
2019-05-22T09:45:15.465Z,62.90
2019-05-22T09:47:43.882Z,62.10
2019-05-22T09:50:12.990Z,61.50
2019-05-22T09:52:56.307Z,60.90
2019-05-22T09:55:13.528Z,60.50
2019-05-22T09:57:41.961Z,60.50
2019-05-22T10:00:12.176Z,60.90
2019-05-22T10:02:42.099Z,61.30
2019-05-22T10:05:13.090Z,61.90
2019-05-22T10:07:57.689Z,62.50
2019-05-22T10:10:12.933Z,61.90
2019-05-22T10:12:41.341Z,60.70
2019-05-22T10:15:10.662Z,59.10
2019-05-22T10:20:10.681Z,56.40
2019-05-22T10:22:40.211Z,56.20
2019-05-22T10:25:15.996Z,55.80
2019-05-22T10:27:40.207Z,56.00
2019-05-22T10:30:12.267Z,55.50
2019-05-22T10:32:40.772Z,54.80
2019-05-22T10:35:10.974Z,55.10
2019-05-22T10:37:40.384Z,54.30
2019-05-22T10:40:10.022Z,53.80
2019-05-22T10:42:38.507Z,54.10
2019-05-22T10:45:07.074Z,54.10
2019-05-22T10:47:36.175Z,53.70
2019-05-22T10:50:05.926Z,53.30
2019-05-22T10:52:34.717Z,53.30
2019-05-22T10:55:06.165Z,53.80
2019-05-22T10:57:34.681Z,54.00
2019-05-22T11:00:05.990Z,53.50
2019-05-22T11:02:34.942Z,53.10
2019-05-22T11:05:03.705Z,52.90
2019-05-22T11:07:32.278Z,52.20
2019-05-22T11:10:01.678Z,51.90
2019-05-22T11:12:30.459Z,51.90
2019-05-22T11:14:59.086Z,51.40
2019-05-22T11:17:27.832Z,51.70
2019-05-22T11:19:56.235Z,51.60
2019-05-22T11:22:25.554Z,51.60
2019-05-22T11:24:54.057Z,51.40
2019-05-22T11:27:24.097Z,50.90
2019-05-22T11:29:52.651Z,51.50
2019-05-22T11:32:21.597Z,51.90
2019-05-22T11:34:50.205Z,51.10
2019-05-22T11:37:20.158Z,50.70
2019-05-22T11:39:48.746Z,50.60
2019-05-22T11:42:17.214Z,51.20
2019-05-22T11:44:45.634Z,50.70
2019-05-22T11:47:15.094Z,49.60
2019-05-22T11:49:44.220Z,49.20
2019-05-22T11:52:15.306Z,49.60
2019-05-22T11:54:44.791Z,50.10
2019-05-22T11:57:27.263Z,51.00
2019-05-22T11:59:51.401Z,49.70
2019-05-22T12:02:20.346Z,49.70
2019-05-22T12:04:54.894Z,49.50
2019-05-22T12:07:23.783Z,49.80
2019-05-22T12:09:52.658Z,49.90
2019-05-22T12:12:21.670Z,50.20
2019-05-22T12:14:50.383Z,50.20
2019-05-22T12:17:36.888Z,49.60
2019-05-22T12:19:49.371Z,49.30
2019-05-22T12:22:19.951Z,49.70
2019-05-22T12:24:48.593Z,50.20
2019-05-22T12:27:17.370Z,50.70
2019-05-22T12:29:47.072Z,49.70
2019-05-22T12:32:15.586Z,49.10
2019-05-22T12:34:44.567Z,48.60
2019-05-22T12:37:13.415Z,48.20
2019-05-22T12:39:41.926Z,47.80
2019-05-22T12:42:13.346Z,47.60
2019-05-22T12:44:42.529Z,47.80
2019-05-22T12:47:11.370Z,48.40
2019-05-22T12:49:40.229Z,48.70
2019-05-22T12:52:09.665Z,48.90
2019-05-22T12:54:47.061Z,49.10
2019-05-22T12:57:10.329Z,49.30
2019-05-22T12:59:39.462Z,49.20
2019-05-22T13:02:10.504Z,49.20
2019-05-22T13:04:39.195Z,48.90
2019-05-22T13:07:08.114Z,48.80
2019-05-22T13:09:37.189Z,49.10
2019-05-22T13:12:06.883Z,48.80
2019-05-22T13:14:36.266Z,48.80
2019-05-22T13:17:07.749Z,48.60
2019-05-22T13:19:37.642Z,49.00
2019-05-22T13:22:11.041Z,48.60
2019-05-22T13:24:40.305Z,48.30
2019-05-22T13:27:11.315Z,48.40
2019-05-22T13:29:41.074Z,48.60
2019-05-22T13:32:12.071Z,48.50
2019-05-22T13:34:41.253Z,48.10
2019-05-22T13:37:11.055Z,47.80
2019-05-22T13:39:39.762Z,47.50
2019-05-22T13:42:08.497Z,47.50
2019-05-22T13:44:37.092Z,48.20
2019-05-22T13:47:07.414Z,47.60
2019-05-22T13:49:37.546Z,47.70
2019-05-22T13:52:06.508Z,47.70
2019-05-22T13:54:35.149Z,47.40
2019-05-22T13:57:04.170Z,47.60
2019-05-22T13:59:32.578Z,47.70
2019-05-22T14:02:01.204Z,47.70
2019-05-22T14:04:29.726Z,47.40
2019-05-22T14:06:59.052Z,47.20
2019-05-22T14:09:29.089Z,47.20
2019-05-22T14:11:57.864Z,46.70
2019-05-22T14:14:26.250Z,46.00
2019-05-22T14:16:54.657Z,45.60
2019-05-22T14:19:23.133Z,45.30
2019-05-22T14:21:52.208Z,45.00
2019-05-22T14:24:21.061Z,44.60
2019-05-22T14:26:49.842Z,44.70
2019-05-22T14:29:18.718Z,44.80
2019-05-22T14:31:47.211Z,44.60
2019-05-22T14:34:15.880Z,44.70
2019-05-22T14:36:44.756Z,45.10
2019-05-22T14:39:13.903Z,45.30
2019-05-22T14:41:42.987Z,45.40
2019-05-22T14:44:11.738Z,45.40
2019-05-22T14:46:40.223Z,45.50
2019-05-22T14:49:08.705Z,45.40
2019-05-22T14:51:37.376Z,45.50
2019-05-22T14:54:07.980Z,45.30
2019-05-22T14:56:36.930Z,45.50
2019-05-22T14:59:06.166Z,46.10
2019-05-22T15:01:34.763Z,45.40
2019-05-22T15:04:03.910Z,45.10
2019-05-22T15:06:32.322Z,44.80
2019-05-22T15:09:00.754Z,45.00
2019-05-22T15:11:29.221Z,45.10
2019-05-22T15:13:57.708Z,45.10
2019-05-22T15:16:26.249Z,45.20
2019-05-22T15:18:55.570Z,45.10
2019-05-22T15:21:24.500Z,45.80
2019-05-22T15:23:53.472Z,45.80
2019-05-22T15:26:21.953Z,46.00
2019-05-22T15:28:50.854Z,46.50
2019-05-22T15:31:19.837Z,45.80
2019-05-22T15:33:48.814Z,45.60
2019-05-22T15:36:20.801Z,45.30
2019-05-22T15:38:50.774Z,45.10
2019-05-22T15:41:19.281Z,45.30
2019-05-22T15:43:52.640Z,45.10
2019-05-22T15:46:21.109Z,45.40
2019-05-22T15:48:51.477Z,46.00
2019-05-22T15:51:22.943Z,46.50
2019-05-22T15:53:54.435Z,46.60
2019-05-22T15:56:22.997Z,46.60
2019-05-22T15:58:54.125Z,46.50
2019-05-22T16:01:25.267Z,46.40
2019-05-22T16:03:55.018Z,46.00
2019-05-22T16:06:26.259Z,46.00
2019-05-22T16:08:54.189Z,45.90
2019-05-22T16:11:25.006Z,46.00
2019-05-22T16:13:54.289Z,46.20
2019-05-22T16:16:24.310Z,46.10
2019-05-22T16:18:55.893Z,46.10
2019-05-22T16:21:24.827Z,46.30
2019-05-22T16:23:53.307Z,46.50
2019-05-22T16:26:22.820Z,46.60
2019-05-22T16:28:52.282Z,46.80
2019-05-22T16:31:22.219Z,47.00
2019-05-22T16:33:53.432Z,47.10
2019-05-22T16:36:22.834Z,47.00
2019-05-22T16:38:51.670Z,46.90
2019-05-22T16:41:20.511Z,46.90
2019-05-22T16:43:50.820Z,46.60
2019-05-22T16:46:21.332Z,46.40
2019-05-22T16:48:50.347Z,46.40
2019-05-22T16:51:19.827Z,46.50
2019-05-22T16:53:53.202Z,46.60
2019-05-22T16:56:23.173Z,46.80
2019-05-22T16:58:51.979Z,47.10
2019-05-22T17:01:22.012Z,47.30
2019-05-22T17:03:52.775Z,48.00
2019-05-22T17:06:22.099Z,47.30
2019-05-22T17:08:52.082Z,47.20
2019-05-22T17:11:21.597Z,47.20
2019-05-22T17:13:50.003Z,47.30
2019-05-22T17:16:18.869Z,47.30
2019-05-22T17:18:48.599Z,47.30
2019-05-22T17:21:18.349Z,47.20
2019-05-22T17:23:46.920Z,47.10
2019-05-22T17:26:16.269Z,47.20
2019-05-22T17:28:45.208Z,47.20
2019-05-22T17:31:14.927Z,47.10
2019-05-22T17:33:43.708Z,47.20
2019-05-22T17:36:13.516Z,47.20
2019-05-22T17:38:42.057Z,47.30
2019-05-22T17:41:11.189Z,47.20
2019-05-22T17:43:41.332Z,47.20
2019-05-22T17:46:11.595Z,47.30
2019-05-22T17:48:41.318Z,47.30
2019-05-22T17:51:10.653Z,47.30
2019-05-22T17:53:39.179Z,48.20
2019-05-22T17:56:07.593Z,47.50
2019-05-22T17:58:36.574Z,47.60
2019-05-22T18:01:06.750Z,47.70
2019-05-22T18:03:35.543Z,47.90
2019-05-22T18:06:05.920Z,47.90
2019-05-22T18:08:34.762Z,48.00
2019-05-22T18:11:06.345Z,48.20
2019-05-22T18:13:38.115Z,48.40
2019-05-22T18:16:05.976Z,48.80
2019-05-22T18:18:34.585Z,49.00
2019-05-22T18:21:04.007Z,49.30
2019-05-22T18:23:32.567Z,49.50
2019-05-22T18:26:01.035Z,49.90
2019-05-22T18:28:29.645Z,50.20
2019-05-22T18:30:58.054Z,50.50
2019-05-22T18:33:26.559Z,50.80
2019-05-22T18:35:55.024Z,51.10
2019-05-22T18:38:23.718Z,51.40
2019-05-22T18:40:52.145Z,51.90
2019-05-22T18:43:23.026Z,52.00
2019-05-22T18:45:51.522Z,52.30
2019-05-22T18:48:20.062Z,52.60
2019-05-22T18:50:48.553Z,52.90
2019-05-22T18:53:17.371Z,53.10
2019-05-22T18:55:45.769Z,53.30
2019-05-22T18:58:14.286Z,53.60
2019-05-22T19:00:43.799Z,53.80
2019-05-22T19:03:12.352Z,53.90
2019-05-22T19:05:41.740Z,54.10
2019-05-22T19:08:10.145Z,54.30
2019-05-22T19:10:38.547Z,54.60
2019-05-22T19:13:06.979Z,54.80
2019-05-22T19:15:35.537Z,55.10
2019-05-22T19:18:04.348Z,55.40
2019-05-22T19:20:32.843Z,55.60
2019-05-22T19:23:01.935Z,55.80
2019-05-22T19:25:30.722Z,56.10
2019-05-22T19:27:59.319Z,56.40
2019-05-22T19:30:27.870Z,56.60
2019-05-22T19:32:56.278Z,56.90
2019-05-22T19:35:24.763Z,57.10
2019-05-22T19:37:53.634Z,57.40
2019-05-22T19:40:22.404Z,57.60
2019-05-22T19:42:51.165Z,57.70
2019-05-22T19:45:20.025Z,57.90
2019-05-22T19:47:51.845Z,58.20
2019-05-22T19:50:23.842Z,58.40
2019-05-22T19:52:53.685Z,58.50
2019-05-22T19:55:23.557Z,58.80
2019-05-22T19:57:51.952Z,59.10
2019-05-22T20:00:22.095Z,59.30
2019-05-22T20:02:51.154Z,59.40
2019-05-22T20:05:21.717Z,59.40
2019-05-22T20:07:51.585Z,59.30
2019-05-22T20:10:20.077Z,59.40
2019-05-22T20:12:49.215Z,59.50
2019-05-22T20:15:18.785Z,59.60
2019-05-22T20:17:47.620Z,59.70
2019-05-22T20:20:17.387Z,59.70
2019-05-22T20:22:46.253Z,59.80
2019-05-22T20:25:17.316Z,59.90
2019-05-22T20:27:46.047Z,60.20
2019-05-22T20:30:15.749Z,60.40
2019-05-22T20:32:45.049Z,60.40
2019-05-22T20:35:14.242Z,60.30
2019-05-22T20:37:45.155Z,60.40
2019-05-22T20:40:15.606Z,61.40
2019-05-22T20:42:44.399Z,60.60
2019-05-22T20:45:13.955Z,60.70
2019-05-22T20:47:43.882Z,60.90
2019-05-22T20:50:12.498Z,60.60
2019-05-22T20:52:41.571Z,60.40
2019-05-22T20:55:12.125Z,60.40
2019-05-22T20:57:42.497Z,60.30
2019-05-22T21:00:14.563Z,60.30
2019-05-22T21:02:44.808Z,60.40
2019-05-22T21:05:15.455Z,60.60
2019-05-22T21:07:49.911Z,60.70
2019-05-22T21:10:20.682Z,60.90
2019-05-22T21:12:50.669Z,61.00
2019-05-22T21:15:19.313Z,60.90
2019-05-22T21:17:49.076Z,61.10
2019-05-22T21:20:20.466Z,61.40
2019-05-22T21:22:48.871Z,61.60
2019-05-22T21:25:17.324Z,61.70
2019-05-22T21:27:45.732Z,61.70
2019-05-22T21:30:14.765Z,61.80
2019-05-22T21:32:43.716Z,61.60
2019-05-22T21:35:13.934Z,61.60
2019-05-22T21:37:42.398Z,61.50
2019-05-22T21:40:12.240Z,61.40
2019-05-22T21:42:41.659Z,61.40
2019-05-22T21:45:10.990Z,61.50
2019-05-22T21:47:41.059Z,61.50
2019-05-22T21:50:11.108Z,61.80
2019-05-22T21:52:40.033Z,61.90
2019-05-22T21:55:11.139Z,62.10
2019-05-22T21:57:40.298Z,62.50
2019-05-22T22:00:12.937Z,62.70
2019-05-22T22:02:44.963Z,62.80
2019-05-22T22:05:14.170Z,63.00
2019-05-22T22:07:43.789Z,63.10
2019-05-22T22:10:15.333Z,63.30
2019-05-22T22:12:44.976Z,63.30
2019-05-22T22:15:15.018Z,63.60
2019-05-22T22:17:44.178Z,63.80
2019-05-22T22:20:12.724Z,63.90
2019-05-22T22:22:41.990Z,63.50
2019-05-22T22:25:11.009Z,64.20
2019-05-22T22:27:39.694Z,64.40
2019-05-22T22:30:15.191Z,64.70
2019-05-22T22:32:44.278Z,64.90
2019-05-22T22:35:15.111Z,65.20
2019-05-22T22:37:43.934Z,65.30
2019-05-22T22:40:15.728Z,65.20
2019-05-22T22:42:46.485Z,65.40
2019-05-22T22:45:20.039Z,65.60
2019-05-22T22:47:50.889Z,65.80
2019-05-22T22:50:21.617Z,66.10
2019-05-22T22:52:50.197Z,66.30
2019-05-22T22:55:21.981Z,66.40
2019-05-22T22:57:51.194Z,66.70
2019-05-22T23:00:24.970Z,67.10
2019-05-22T23:02:54.442Z,66.70
2019-05-22T23:05:24.360Z,67.00
2019-05-22T23:07:53.534Z,67.40
2019-05-22T23:10:23.087Z,67.80
2019-05-22T23:12:53.812Z,68.10
2019-05-22T23:15:24.390Z,68.30
2019-05-22T23:17:53.234Z,68.30
2019-05-22T23:20:21.077Z,68.50
2019-05-22T23:22:49.325Z,68.60
2019-05-22T23:25:21.000Z,68.50
2019-05-22T23:27:50.694Z,68.30
2019-05-22T23:30:21.061Z,68.00
2019-05-22T23:32:51.031Z,67.80
2019-05-22T23:35:21.056Z,68.60
2019-05-22T23:37:49.906Z,67.70
2019-05-22T23:40:24.067Z,67.70
2019-05-22T23:42:53.412Z,67.60
2019-05-22T23:45:22.411Z,67.70
2019-05-22T23:48:07.522Z,67.50
2019-05-22T23:50:38.630Z,67.50
2019-05-22T23:53:08.512Z,67.50
2019-05-22T23:55:39.066Z,67.50
2019-05-22T23:58:09.784Z,67.60
